sensor_id;sensor_type;location;lat;lon;timestamp;temperature;humidity
6865;DHT22;3471;49.678;8.388;2023-07-09T00:02:23;22.80;99.90
6865;DHT22;3471;49.678;8.388;2023-07-09T00:04:49;22.80;99.90
6865;DHT22;3471;49.678;8.388;2023-07-09T00:07:22;22.70;99.90
6865;DHT22;3471;49.678;8.388;2023-07-09T00:09:49;22.70;99.90
6865;DHT22;3471;49.678;8.388;2023-07-09T00:12:17;22.70;99.90
6865;DHT22;3471;49.678;8.388;2023-07-09T00:14:43;22.70;99.90
6865;DHT22;3471;49.678;8.388;2023-07-09T00:17:37;22.70;99.90
6865;DHT22;3471;49.678;8.388;2023-07-09T00:20:04;22.70;99.90
6865;DHT22;3471;49.678;8.388;2023-07-09T00:22:36;22.60;99.90
6865;DHT22;3471;49.678;8.388;2023-07-09T00:25:02;22.60;99.90
6865;DHT22;3471;49.678;8.388;2023-07-09T00:27:29;22.60;99.90
6865;DHT22;3471;49.678;8.388;2023-07-09T00:29:56;22.60;99.90
6865;DHT22;3471;49.678;8.388;2023-07-09T00:32:21;22.60;99.90
6865;DHT22;3471;49.678;8.388;2023-07-09T00:34:48;22.70;99.90
6865;DHT22;3471;49.678;8.388;2023-07-09T00:37:15;22.70;99.90
6865;DHT22;3471;49.678;8.388;2023-07-09T00:39:43;22.70;99.90
6865;DHT22;3471;49.678;8.388;2023-07-09T00:42:13;22.60;99.90
6865;DHT22;3471;49.678;8.388;2023-07-09T00:44:47;22.60;99.90
6865;DHT22;3471;49.678;8.388;2023-07-09T00:47:25;22.50;99.90
6865;DHT22;3471;49.678;8.388;2023-07-09T00:50:45;22.40;99.90
6865;DHT22;3471;49.678;8.388;2023-07-09T00:55:39;22.40;99.90
6865;DHT22;3471;49.678;8.388;2023-07-09T00:58:10;22.30;99.90
6865;DHT22;3471;49.678;8.388;2023-07-09T01:00:40;22.30;99.90
6865;DHT22;3471;49.678;8.388;2023-07-09T01:03:35;22.30;99.90
6865;DHT22;3471;49.678;8.388;2023-07-09T01:06:00;22.20;99.90
6865;DHT22;3471;49.678;8.388;2023-07-09T01:08:26;22.20;99.90
6865;DHT22;3471;49.678;8.388;2023-07-09T01:10:56;22.20;99.90
6865;DHT22;3471;49.678;8.388;2023-07-09T01:13:23;22.10;99.90
6865;DHT22;3471;49.678;8.388;2023-07-09T01:15:49;22.10;99.90
6865;DHT22;3471;49.678;8.388;2023-07-09T01:18:14;22.10;99.90
6865;DHT22;3471;49.678;8.388;2023-07-09T01:20:41;22.00;99.90
6865;DHT22;3471;49.678;8.388;2023-07-09T01:23:07;22.00;99.90
6865;DHT22;3471;49.678;8.388;2023-07-09T01:25:34;22.00;99.90
6865;DHT22;3471;49.678;8.388;2023-07-09T01:28:00;22.00;99.90
6865;DHT22;3471;49.678;8.388;2023-07-09T01:30:32;21.90;99.90
6865;DHT22;3471;49.678;8.388;2023-07-09T01:32:59;21.90;99.90
6865;DHT22;3471;49.678;8.388;2023-07-09T01:35:29;21.90;99.90
6865;DHT22;3471;49.678;8.388;2023-07-09T01:37:55;21.90;99.90
6865;DHT22;3471;49.678;8.388;2023-07-09T01:40:23;21.80;99.90
6865;DHT22;3471;49.678;8.388;2023-07-09T01:42:50;21.80;99.90
6865;DHT22;3471;49.678;8.388;2023-07-09T01:45:16;21.70;99.90
6865;DHT22;3471;49.678;8.388;2023-07-09T01:47:42;21.70;99.90
6865;DHT22;3471;49.678;8.388;2023-07-09T01:50:09;21.60;99.90
6865;DHT22;3471;49.678;8.388;2023-07-09T01:52:37;21.60;99.90
6865;DHT22;3471;49.678;8.388;2023-07-09T01:55:04;21.60;99.90
6865;DHT22;3471;49.678;8.388;2023-07-09T01:57:30;21.60;99.90
6865;DHT22;3471;49.678;8.388;2023-07-09T01:59:59;21.60;99.90
6865;DHT22;3471;49.678;8.388;2023-07-09T02:02:25;21.60;99.90
6865;DHT22;3471;49.678;8.388;2023-07-09T02:04:54;21.50;99.90
6865;DHT22;3471;49.678;8.388;2023-07-09T02:07:22;21.50;99.90
6865;DHT22;3471;49.678;8.388;2023-07-09T02:09:48;21.50;99.90
6865;DHT22;3471;49.678;8.388;2023-07-09T02:12:15;21.50;99.90
6865;DHT22;3471;49.678;8.388;2023-07-09T02:14:42;21.50;99.90
6865;DHT22;3471;49.678;8.388;2023-07-09T02:17:08;21.50;99.90
6865;DHT22;3471;49.678;8.388;2023-07-09T02:19:34;21.50;99.90
6865;DHT22;3471;49.678;8.388;2023-07-09T02:22:00;21.50;99.90
6865;DHT22;3471;49.678;8.388;2023-07-09T02:24:26;21.60;99.90
6865;DHT22;3471;49.678;8.388;2023-07-09T02:26:54;21.60;99.90
6865;DHT22;3471;49.678;8.388;2023-07-09T02:29:20;21.60;99.90
6865;DHT22;3471;49.678;8.388;2023-07-09T02:31:47;21.60;99.90
6865;DHT22;3471;49.678;8.388;2023-07-09T02:34:13;21.60;99.90
6865;DHT22;3471;49.678;8.388;2023-07-09T02:36:39;21.60;99.90
6865;DHT22;3471;49.678;8.388;2023-07-09T02:39:11;21.60;99.90
6865;DHT22;3471;49.678;8.388;2023-07-09T02:41:38;21.60;99.90
6865;DHT22;3471;49.678;8.388;2023-07-09T02:44:04;21.50;99.90
6865;DHT22;3471;49.678;8.388;2023-07-09T02:46:30;21.60;99.90
6865;DHT22;3471;49.678;8.388;2023-07-09T02:48:56;21.50;99.90
6865;DHT22;3471;49.678;8.388;2023-07-09T02:51:22;21.50;99.90
6865;DHT22;3471;49.678;8.388;2023-07-09T02:53:48;21.50;99.90
6865;DHT22;3471;49.678;8.388;2023-07-09T02:56:13;21.50;99.90
6865;DHT22;3471;49.678;8.388;2023-07-09T02:58:39;21.50;99.90
6865;DHT22;3471;49.678;8.388;2023-07-09T03:01:04;21.50;99.90
6865;DHT22;3471;49.678;8.388;2023-07-09T03:03:30;21.50;99.90
6865;DHT22;3471;49.678;8.388;2023-07-09T03:05:56;21.50;99.90
6865;DHT22;3471;49.678;8.388;2023-07-09T03:08:22;21.40;99.90
6865;DHT22;3471;49.678;8.388;2023-07-09T03:10:47;21.50;99.90
6865;DHT22;3471;49.678;8.388;2023-07-09T03:13:13;21.50;99.90
6865;DHT22;3471;49.678;8.388;2023-07-09T03:15:38;21.40;99.90
6865;DHT22;3471;49.678;8.388;2023-07-09T03:18:04;21.50;99.90
6865;DHT22;3471;49.678;8.388;2023-07-09T03:20:29;21.50;99.90
6865;DHT22;3471;49.678;8.388;2023-07-09T03:22:55;21.50;99.90
6865;DHT22;3471;49.678;8.388;2023-07-09T03:25:21;21.50;99.90
6865;DHT22;3471;49.678;8.388;2023-07-09T03:27:49;21.50;99.90
6865;DHT22;3471;49.678;8.388;2023-07-09T03:30:15;21.50;99.90
6865;DHT22;3471;49.678;8.388;2023-07-09T03:32:42;21.50;99.90
6865;DHT22;3471;49.678;8.388;2023-07-09T03:35:07;21.50;99.90
6865;DHT22;3471;49.678;8.388;2023-07-09T03:37:33;21.50;99.90
6865;DHT22;3471;49.678;8.388;2023-07-09T03:40:00;21.40;99.90
6865;DHT22;3471;49.678;8.388;2023-07-09T03:42:25;21.50;99.90
6865;DHT22;3471;49.678;8.388;2023-07-09T03:44:51;21.40;99.90
6865;DHT22;3471;49.678;8.388;2023-07-09T03:47:16;21.50;99.90
6865;DHT22;3471;49.678;8.388;2023-07-09T03:49:43;21.40;99.90
6865;DHT22;3471;49.678;8.388;2023-07-09T03:52:09;21.40;99.90
6865;DHT22;3471;49.678;8.388;2023-07-09T03:54:35;21.40;99.90
6865;DHT22;3471;49.678;8.388;2023-07-09T03:57:00;21.40;99.90
6865;DHT22;3471;49.678;8.388;2023-07-09T03:59:26;21.40;99.90
6865;DHT22;3471;49.678;8.388;2023-07-09T04:01:51;21.40;99.90
6865;DHT22;3471;49.678;8.388;2023-07-09T04:04:17;21.50;99.90
6865;DHT22;3471;49.678;8.388;2023-07-09T04:06:48;21.50;99.90
6865;DHT22;3471;49.678;8.388;2023-07-09T04:09:14;21.50;99.90
6865;DHT22;3471;49.678;8.388;2023-07-09T04:11:40;21.50;99.90
6865;DHT22;3471;49.678;8.388;2023-07-09T04:14:05;21.50;99.90
6865;DHT22;3471;49.678;8.388;2023-07-09T04:16:32;21.50;99.90
6865;DHT22;3471;49.678;8.388;2023-07-09T04:18:58;21.50;99.90
6865;DHT22;3471;49.678;8.388;2023-07-09T04:21:23;21.40;99.90
6865;DHT22;3471;49.678;8.388;2023-07-09T04:23:49;21.40;99.90
6865;DHT22;3471;49.678;8.388;2023-07-09T04:26:15;21.40;99.90
6865;DHT22;3471;49.678;8.388;2023-07-09T04:28:40;21.40;99.90
6865;DHT22;3471;49.678;8.388;2023-07-09T04:31:06;21.40;99.90
6865;DHT22;3471;49.678;8.388;2023-07-09T04:33:32;21.50;99.90
6865;DHT22;3471;49.678;8.388;2023-07-09T04:36:01;21.50;99.90
6865;DHT22;3471;49.678;8.388;2023-07-09T04:38:26;21.60;99.90
6865;DHT22;3471;49.678;8.388;2023-07-09T04:40:52;21.70;99.90
6865;DHT22;3471;49.678;8.388;2023-07-09T04:43:17;21.70;99.90
6865;DHT22;3471;49.678;8.388;2023-07-09T04:45:43;21.80;99.90
6865;DHT22;3471;49.678;8.388;2023-07-09T04:48:08;21.80;99.90
6865;DHT22;3471;49.678;8.388;2023-07-09T04:50:34;21.90;99.90
6865;DHT22;3471;49.678;8.388;2023-07-09T04:53:00;22.00;99.90
6865;DHT22;3471;49.678;8.388;2023-07-09T04:55:26;22.00;99.90
6865;DHT22;3471;49.678;8.388;2023-07-09T04:57:52;22.10;99.90
6865;DHT22;3471;49.678;8.388;2023-07-09T05:00:18;22.10;99.90
6865;DHT22;3471;49.678;8.388;2023-07-09T05:02:43;22.20;99.90
6865;DHT22;3471;49.678;8.388;2023-07-09T05:05:09;22.20;99.90
6865;DHT22;3471;49.678;8.388;2023-07-09T05:07:36;22.30;99.90
6865;DHT22;3471;49.678;8.388;2023-07-09T05:10:02;22.40;99.90
6865;DHT22;3471;49.678;8.388;2023-07-09T05:12:27;22.50;99.90
6865;DHT22;3471;49.678;8.388;2023-07-09T05:14:54;22.50;99.90
6865;DHT22;3471;49.678;8.388;2023-07-09T05:17:20;22.60;99.90
6865;DHT22;3471;49.678;8.388;2023-07-09T05:19:45;22.70;99.90
6865;DHT22;3471;49.678;8.388;2023-07-09T05:22:11;22.80;99.90
6865;DHT22;3471;49.678;8.388;2023-07-09T05:24:36;22.90;99.90
6865;DHT22;3471;49.678;8.388;2023-07-09T05:27:02;23.00;99.90
6865;DHT22;3471;49.678;8.388;2023-07-09T05:29:28;23.10;99.90
6865;DHT22;3471;49.678;8.388;2023-07-09T05:31:54;23.20;99.90
6865;DHT22;3471;49.678;8.388;2023-07-09T05:34:20;23.30;99.90
6865;DHT22;3471;49.678;8.388;2023-07-09T05:36:46;23.40;99.90
6865;DHT22;3471;49.678;8.388;2023-07-09T05:39:12;23.40;99.90
6865;DHT22;3471;49.678;8.388;2023-07-09T05:41:37;23.50;99.90
6865;DHT22;3471;49.678;8.388;2023-07-09T05:44:03;23.60;99.90
6865;DHT22;3471;49.678;8.388;2023-07-09T05:46:34;23.70;99.90
6865;DHT22;3471;49.678;8.388;2023-07-09T05:49:01;23.80;99.90
6865;DHT22;3471;49.678;8.388;2023-07-09T05:51:27;23.80;99.90
6865;DHT22;3471;49.678;8.388;2023-07-09T05:53:53;23.90;99.90
6865;DHT22;3471;49.678;8.388;2023-07-09T05:56:18;24.00;99.90
6865;DHT22;3471;49.678;8.388;2023-07-09T05:58:44;24.10;99.90
6865;DHT22;3471;49.678;8.388;2023-07-09T06:01:10;24.20;99.90
6865;DHT22;3471;49.678;8.388;2023-07-09T06:03:35;24.40;99.90
6865;DHT22;3471;49.678;8.388;2023-07-09T06:06:01;24.40;99.90
6865;DHT22;3471;49.678;8.388;2023-07-09T06:08:27;24.50;99.90
6865;DHT22;3471;49.678;8.388;2023-07-09T06:10:57;24.60;99.90
6865;DHT22;3471;49.678;8.388;2023-07-09T06:13:24;24.70;99.90
6865;DHT22;3471;49.678;8.388;2023-07-09T06:15:51;24.90;99.90
6865;DHT22;3471;49.678;8.388;2023-07-09T06:18:18;25.00;99.90
6865;DHT22;3471;49.678;8.388;2023-07-09T06:20:51;25.00;99.90
6865;DHT22;3471;49.678;8.388;2023-07-09T06:23:18;25.20;99.90
6865;DHT22;3471;49.678;8.388;2023-07-09T06:25:44;25.30;99.90
6865;DHT22;3471;49.678;8.388;2023-07-09T06:28:14;25.40;99.90
6865;DHT22;3471;49.678;8.388;2023-07-09T06:30:40;25.40;99.90
6865;DHT22;3471;49.678;8.388;2023-07-09T06:33:06;25.50;99.90
6865;DHT22;3471;49.678;8.388;2023-07-09T06:35:32;25.60;99.90
6865;DHT22;3471;49.678;8.388;2023-07-09T06:37:58;25.60;99.90
6865;DHT22;3471;49.678;8.388;2023-07-09T06:40:23;25.80;99.90
6865;DHT22;3471;49.678;8.388;2023-07-09T06:42:50;25.80;99.90
6865;DHT22;3471;49.678;8.388;2023-07-09T06:45:16;25.90;99.90
6865;DHT22;3471;49.678;8.388;2023-07-09T06:47:41;26.10;99.90
6865;DHT22;3471;49.678;8.388;2023-07-09T06:50:07;26.10;99.90
6865;DHT22;3471;49.678;8.388;2023-07-09T06:52:33;26.20;99.90
6865;DHT22;3471;49.678;8.388;2023-07-09T06:54:58;26.20;99.90
6865;DHT22;3471;49.678;8.388;2023-07-09T06:57:24;26.30;99.90
6865;DHT22;3471;49.678;8.388;2023-07-09T06:59:49;26.40;99.90
6865;DHT22;3471;49.678;8.388;2023-07-09T07:02:15;26.50;99.90
6865;DHT22;3471;49.678;8.388;2023-07-09T07:04:40;26.60;99.90
6865;DHT22;3471;49.678;8.388;2023-07-09T07:07:07;26.70;99.90
6865;DHT22;3471;49.678;8.388;2023-07-09T07:09:32;26.70;99.90
6865;DHT22;3471;49.678;8.388;2023-07-09T07:11:58;26.80;99.90
6865;DHT22;3471;49.678;8.388;2023-07-09T07:14:24;26.90;99.90
6865;DHT22;3471;49.678;8.388;2023-07-09T07:16:50;27.00;99.90
6865;DHT22;3471;49.678;8.388;2023-07-09T07:19:15;27.00;99.90
6865;DHT22;3471;49.678;8.388;2023-07-09T07:21:41;27.10;99.90
6865;DHT22;3471;49.678;8.388;2023-07-09T07:24:08;27.20;99.90
6865;DHT22;3471;49.678;8.388;2023-07-09T07:26:34;27.30;99.90
6865;DHT22;3471;49.678;8.388;2023-07-09T07:28:59;27.40;99.90
6865;DHT22;3471;49.678;8.388;2023-07-09T07:31:25;27.60;99.90
6865;DHT22;3471;49.678;8.388;2023-07-09T07:33:51;27.70;99.90
6865;DHT22;3471;49.678;8.388;2023-07-09T07:36:16;27.80;99.90
6865;DHT22;3471;49.678;8.388;2023-07-09T07:38:42;27.90;99.90
6865;DHT22;3471;49.678;8.388;2023-07-09T07:41:08;28.00;99.90
6865;DHT22;3471;49.678;8.388;2023-07-09T07:43:33;28.10;99.90
6865;DHT22;3471;49.678;8.388;2023-07-09T07:45:59;28.20;99.90
6865;DHT22;3471;49.678;8.388;2023-07-09T07:48:25;28.30;99.90
6865;DHT22;3471;49.678;8.388;2023-07-09T07:50:50;28.40;99.90
6865;DHT22;3471;49.678;8.388;2023-07-09T07:53:16;28.50;99.90
6865;DHT22;3471;49.678;8.388;2023-07-09T07:55:42;28.60;99.90
6865;DHT22;3471;49.678;8.388;2023-07-09T07:58:12;28.70;99.90
6865;DHT22;3471;49.678;8.388;2023-07-09T08:00:39;28.70;99.90
6865;DHT22;3471;49.678;8.388;2023-07-09T08:03:05;28.80;99.90
6865;DHT22;3471;49.678;8.388;2023-07-09T08:05:30;28.90;99.90
6865;DHT22;3471;49.678;8.388;2023-07-09T08:07:56;29.00;99.90
6865;DHT22;3471;49.678;8.388;2023-07-09T08:10:22;29.00;99.90
6865;DHT22;3471;49.678;8.388;2023-07-09T08:12:48;29.10;99.90
6865;DHT22;3471;49.678;8.388;2023-07-09T08:15:13;29.20;99.90
6865;DHT22;3471;49.678;8.388;2023-07-09T08:17:39;29.20;99.90
6865;DHT22;3471;49.678;8.388;2023-07-09T08:20:05;29.30;99.90
6865;DHT22;3471;49.678;8.388;2023-07-09T08:22:31;29.40;99.90
6865;DHT22;3471;49.678;8.388;2023-07-09T08:24:57;29.50;99.90
6865;DHT22;3471;49.678;8.388;2023-07-09T08:27:22;29.60;99.90
6865;DHT22;3471;49.678;8.388;2023-07-09T08:29:48;29.80;99.90
6865;DHT22;3471;49.678;8.388;2023-07-09T08:32:14;29.80;99.90
6865;DHT22;3471;49.678;8.388;2023-07-09T08:34:40;30.00;99.90
6865;DHT22;3471;49.678;8.388;2023-07-09T08:37:07;30.00;99.90
6865;DHT22;3471;49.678;8.388;2023-07-09T08:39:33;30.10;99.90
6865;DHT22;3471;49.678;8.388;2023-07-09T08:42:09;30.20;99.90
6865;DHT22;3471;49.678;8.388;2023-07-09T08:49:44;30.50;99.90
6865;DHT22;3471;49.678;8.388;2023-07-09T08:52:17;30.60;99.90
6865;DHT22;3471;49.678;8.388;2023-07-09T08:54:47;30.80;99.90
6865;DHT22;3471;49.678;8.388;2023-07-09T08:57:23;30.80;99.90
6865;DHT22;3471;49.678;8.388;2023-07-09T08:59:58;30.90;99.90
6865;DHT22;3471;49.678;8.388;2023-07-09T09:02:35;31.00;99.90
6865;DHT22;3471;49.678;8.388;2023-07-09T09:05:05;31.10;99.90
6865;DHT22;3471;49.678;8.388;2023-07-09T09:07:38;31.30;99.90
6865;DHT22;3471;49.678;8.388;2023-07-09T09:10:12;31.30;99.90
6865;DHT22;3471;49.678;8.388;2023-07-09T09:12:56;31.50;99.90
6865;DHT22;3471;49.678;8.388;2023-07-09T09:15:25;31.60;99.90
6865;DHT22;3471;49.678;8.388;2023-07-09T09:17:54;31.70;99.90
6865;DHT22;3471;49.678;8.388;2023-07-09T09:20:21;31.80;99.90
6865;DHT22;3471;49.678;8.388;2023-07-09T09:25:32;32.00;99.90
6865;DHT22;3471;49.678;8.388;2023-07-09T09:28:02;32.10;99.90
6865;DHT22;3471;49.678;8.388;2023-07-09T09:30:28;32.20;99.90
6865;DHT22;3471;49.678;8.388;2023-07-09T09:33:06;32.20;99.90
6865;DHT22;3471;49.678;8.388;2023-07-09T09:35:35;32.30;99.90
6865;DHT22;3471;49.678;8.388;2023-07-09T09:38:01;32.50;99.90
6865;DHT22;3471;49.678;8.388;2023-07-09T09:40:29;32.60;99.90
6865;DHT22;3471;49.678;8.388;2023-07-09T09:42:57;32.70;99.90
6865;DHT22;3471;49.678;8.388;2023-07-09T09:45:35;32.90;99.90
6865;DHT22;3471;49.678;8.388;2023-07-09T09:50:46;33.10;99.90
6865;DHT22;3471;49.678;8.388;2023-07-09T09:53:21;33.20;99.90
6865;DHT22;3471;49.678;8.388;2023-07-09T09:55:48;33.20;99.30
6865;DHT22;3471;49.678;8.388;2023-07-09T09:58:16;33.30;99.90
6865;DHT22;3471;49.678;8.388;2023-07-09T10:00:49;33.40;99.90
6865;DHT22;3471;49.678;8.388;2023-07-09T10:03:15;33.50;99.70
6865;DHT22;3471;49.678;8.388;2023-07-09T10:05:50;33.70;99.90
6865;DHT22;3471;49.678;8.388;2023-07-09T10:11:28;33.90;98.50
6865;DHT22;3471;49.678;8.388;2023-07-09T10:14:00;34.00;99.10
6865;DHT22;3471;49.678;8.388;2023-07-09T10:16:40;34.10;97.70
6865;DHT22;3471;49.678;8.388;2023-07-09T10:19:42;34.10;99.90
6865;DHT22;3471;49.678;8.388;2023-07-09T10:22:43;34.30;98.30
6865;DHT22;3471;49.678;8.388;2023-07-09T10:25:29;34.40;97.30
6865;DHT22;3471;49.678;8.388;2023-07-09T10:31:00;34.70;97.80
6865;DHT22;3471;49.678;8.388;2023-07-09T10:36:30;35.00;94.80
6865;DHT22;3471;49.678;8.388;2023-07-09T10:39:13;35.20;94.50
6865;DHT22;3471;49.678;8.388;2023-07-09T10:41:40;35.20;91.40
6865;DHT22;3471;49.678;8.388;2023-07-09T10:44:20;35.20;92.90
6865;DHT22;3471;49.678;8.388;2023-07-09T10:46:50;35.30;92.60
6865;DHT22;3471;49.678;8.388;2023-07-09T10:49:18;35.30;93.50
6865;DHT22;3471;49.678;8.388;2023-07-09T10:51:54;35.40;93.90
6865;DHT22;3471;49.678;8.388;2023-07-09T10:55:28;35.40;93.50
6865;DHT22;3471;49.678;8.388;2023-07-09T10:59:59;35.70;92.80
6865;DHT22;3471;49.678;8.388;2023-07-09T11:02:30;35.80;92.10
6865;DHT22;3471;49.678;8.388;2023-07-09T11:05:03;35.90;92.20
6865;DHT22;3471;49.678;8.388;2023-07-09T11:07:42;36.00;90.70
6865;DHT22;3471;49.678;8.388;2023-07-09T11:10:21;36.00;91.30
6865;DHT22;3471;49.678;8.388;2023-07-09T11:12:57;36.10;87.10
6865;DHT22;3471;49.678;8.388;2023-07-09T11:15:31;36.00;90.80
6865;DHT22;3471;49.678;8.388;2023-07-09T11:17:58;36.10;86.40
6865;DHT22;3471;49.678;8.388;2023-07-09T11:20:31;36.10;84.90
6865;DHT22;3471;49.678;8.388;2023-07-09T11:23:06;36.30;85.00
6865;DHT22;3471;49.678;8.388;2023-07-09T11:25:45;36.40;84.80
6865;DHT22;3471;49.678;8.388;2023-07-09T11:28:11;36.40;85.20
6865;DHT22;3471;49.678;8.388;2023-07-09T11:33:32;36.70;90.00
6865;DHT22;3471;49.678;8.388;2023-07-09T11:36:11;36.90;84.30
6865;DHT22;3471;49.678;8.388;2023-07-09T11:38:42;37.00;83.30
6865;DHT22;3471;49.678;8.388;2023-07-09T11:41:43;37.10;83.10
6865;DHT22;3471;49.678;8.388;2023-07-09T11:44:17;37.10;82.00
6865;DHT22;3471;49.678;8.388;2023-07-09T11:47:17;37.20;78.90
6865;DHT22;3471;49.678;8.388;2023-07-09T11:49:52;37.20;79.40
6865;DHT22;3471;49.678;8.388;2023-07-09T11:52:40;37.20;79.50
6865;DHT22;3471;49.678;8.388;2023-07-09T11:58:07;37.20;75.70
6865;DHT22;3471;49.678;8.388;2023-07-09T12:00:55;37.40;77.40
6865;DHT22;3471;49.678;8.388;2023-07-09T12:06:18;37.70;76.70
6865;DHT22;3471;49.678;8.388;2023-07-09T12:08:45;37.70;77.50
6865;DHT22;3471;49.678;8.388;2023-07-09T12:11:29;37.80;74.60
6865;DHT22;3471;49.678;8.388;2023-07-09T12:14:04;37.80;73.50
6865;DHT22;3471;49.678;8.388;2023-07-09T12:16:34;37.80;74.00
6865;DHT22;3471;49.678;8.388;2023-07-09T12:19:00;37.90;71.30
6865;DHT22;3471;49.678;8.388;2023-07-09T12:21:26;37.90;72.90
6865;DHT22;3471;49.678;8.388;2023-07-09T12:23:54;37.90;72.60
6865;DHT22;3471;49.678;8.388;2023-07-09T12:26:20;37.90;69.70
6865;DHT22;3471;49.678;8.388;2023-07-09T12:28:53;37.70;70.00
6865;DHT22;3471;49.678;8.388;2023-07-09T12:31:24;37.80;74.00
6865;DHT22;3471;49.678;8.388;2023-07-09T12:33:52;37.80;71.60
6865;DHT22;3471;49.678;8.388;2023-07-09T12:36:18;37.90;67.70
6865;DHT22;3471;49.678;8.388;2023-07-09T12:38:47;37.90;69.40
6865;DHT22;3471;49.678;8.388;2023-07-09T12:41:22;38.00;70.90
6865;DHT22;3471;49.678;8.388;2023-07-09T12:43:48;38.20;70.70
6865;DHT22;3471;49.678;8.388;2023-07-09T12:46:15;38.30;71.40
6865;DHT22;3471;49.678;8.388;2023-07-09T12:48:41;38.40;70.30
6865;DHT22;3471;49.678;8.388;2023-07-09T12:51:08;38.50;70.60
6865;DHT22;3471;49.678;8.388;2023-07-09T12:53:35;38.50;68.60
6865;DHT22;3471;49.678;8.388;2023-07-09T12:56:01;38.40;68.10
6865;DHT22;3471;49.678;8.388;2023-07-09T12:58:32;38.60;68.30
6865;DHT22;3471;49.678;8.388;2023-07-09T13:00:59;38.70;68.70
6865;DHT22;3471;49.678;8.388;2023-07-09T13:03:29;38.90;68.70
6865;DHT22;3471;49.678;8.388;2023-07-09T13:06:00;39.00;68.30
6865;DHT22;3471;49.678;8.388;2023-07-09T13:08:28;39.20;70.30
6865;DHT22;3471;49.678;8.388;2023-07-09T13:10:55;39.30;69.10
6865;DHT22;3471;49.678;8.388;2023-07-09T13:13:23;39.50;65.90
6865;DHT22;3471;49.678;8.388;2023-07-09T13:18:17;39.70;70.40
6865;DHT22;3471;49.678;8.388;2023-07-09T13:20:44;39.90;70.50
6865;DHT22;3471;49.678;8.388;2023-07-09T13:23:14;40.10;67.00
6865;DHT22;3471;49.678;8.388;2023-07-09T13:25:41;40.30;67.60
6865;DHT22;3471;49.678;8.388;2023-07-09T13:28:23;40.30;67.10
6865;DHT22;3471;49.678;8.388;2023-07-09T13:30:56;40.40;63.40
6865;DHT22;3471;49.678;8.388;2023-07-09T13:33:23;40.50;64.20
6865;DHT22;3471;49.678;8.388;2023-07-09T13:35:49;40.50;64.20
6865;DHT22;3471;49.678;8.388;2023-07-09T13:38:19;40.60;65.90
6865;DHT22;3471;49.678;8.388;2023-07-09T13:40:47;40.70;63.50
6865;DHT22;3471;49.678;8.388;2023-07-09T13:43:41;40.90;65.50
6865;DHT22;3471;49.678;8.388;2023-07-09T13:46:07;41.10;63.10
6865;DHT22;3471;49.678;8.388;2023-07-09T13:48:34;41.20;63.60
6865;DHT22;3471;49.678;8.388;2023-07-09T13:51:00;41.40;65.70
6865;DHT22;3471;49.678;8.388;2023-07-09T13:53:29;41.50;61.90
6865;DHT22;3471;49.678;8.388;2023-07-09T13:55:55;41.30;62.00
6865;DHT22;3471;49.678;8.388;2023-07-09T13:58:24;41.20;61.50
6865;DHT22;3471;49.678;8.388;2023-07-09T14:01:08;41.00;63.00
6865;DHT22;3471;49.678;8.388;2023-07-09T14:03:35;40.70;61.60
6865;DHT22;3471;49.678;8.388;2023-07-09T14:06:00;40.50;63.00
6865;DHT22;3471;49.678;8.388;2023-07-09T14:08:26;40.30;62.90
6865;DHT22;3471;49.678;8.388;2023-07-09T14:10:52;40.10;64.40
6865;DHT22;3471;49.678;8.388;2023-07-09T14:13:20;39.90;62.80
6865;DHT22;3471;49.678;8.388;2023-07-09T14:15:46;39.70;63.40
6865;DHT22;3471;49.678;8.388;2023-07-09T14:18:15;39.50;62.00
6865;DHT22;3471;49.678;8.388;2023-07-09T14:20:41;39.40;64.60
6865;DHT22;3471;49.678;8.388;2023-07-09T14:23:11;39.30;64.60
6865;DHT22;3471;49.678;8.388;2023-07-09T14:25:37;39.40;63.80
6865;DHT22;3471;49.678;8.388;2023-07-09T14:28:09;39.40;63.40
6865;DHT22;3471;49.678;8.388;2023-07-09T14:30:36;39.50;64.80
6865;DHT22;3471;49.678;8.388;2023-07-09T14:33:01;39.60;64.00
6865;DHT22;3471;49.678;8.388;2023-07-09T14:35:27;39.90;62.10
6865;DHT22;3471;49.678;8.388;2023-07-09T14:37:53;40.20;62.20
6865;DHT22;3471;49.678;8.388;2023-07-09T14:40:25;40.50;62.90
6865;DHT22;3471;49.678;8.388;2023-07-09T14:42:51;40.70;64.70
6865;DHT22;3471;49.678;8.388;2023-07-09T14:45:24;41.00;62.30
6865;DHT22;3471;49.678;8.388;2023-07-09T14:47:52;41.30;60.50
6865;DHT22;3471;49.678;8.388;2023-07-09T14:50:18;41.70;65.20
6865;DHT22;3471;49.678;8.388;2023-07-09T14:52:45;41.90;63.70
6865;DHT22;3471;49.678;8.388;2023-07-09T14:55:20;42.20;60.60
6865;DHT22;3471;49.678;8.388;2023-07-09T14:57:47;42.40;64.00
6865;DHT22;3471;49.678;8.388;2023-07-09T15:00:18;42.40;58.00
6865;DHT22;3471;49.678;8.388;2023-07-09T15:02:45;42.40;57.80
6865;DHT22;3471;49.678;8.388;2023-07-09T15:07:38;42.10;60.80
6865;DHT22;3471;49.678;8.388;2023-07-09T15:10:04;42.00;58.80
6865;DHT22;3471;49.678;8.388;2023-07-09T15:12:34;41.90;58.70
6865;DHT22;3471;49.678;8.388;2023-07-09T15:15:27;41.80;58.80
6865;DHT22;3471;49.678;8.388;2023-07-09T15:17:58;41.70;59.80
6865;DHT22;3471;49.678;8.388;2023-07-09T15:20:26;41.50;58.40
6865;DHT22;3471;49.678;8.388;2023-07-09T15:22:55;41.30;56.80
6865;DHT22;3471;49.678;8.388;2023-07-09T15:25:24;41.20;58.30
6865;DHT22;3471;49.678;8.388;2023-07-09T15:27:51;41.00;59.30
6865;DHT22;3471;49.678;8.388;2023-07-09T15:30:23;40.80;56.10
6865;DHT22;3471;49.678;8.388;2023-07-09T15:32:49;40.50;57.20
6865;DHT22;3471;49.678;8.388;2023-07-09T15:35:17;40.20;57.00
6865;DHT22;3471;49.678;8.388;2023-07-09T15:37:44;39.80;59.20
6865;DHT22;3471;49.678;8.388;2023-07-09T15:40:28;39.40;61.20
6865;DHT22;3471;49.678;8.388;2023-07-09T15:43:00;39.00;58.00
6865;DHT22;3471;49.678;8.388;2023-07-09T15:45:28;38.80;59.90
6865;DHT22;3471;49.678;8.388;2023-07-09T15:47:53;38.50;58.00
6865;DHT22;3471;49.678;8.388;2023-07-09T15:50:26;38.30;58.50
6865;DHT22;3471;49.678;8.388;2023-07-09T15:52:53;38.00;61.10
6865;DHT22;3471;49.678;8.388;2023-07-09T15:55:25;37.90;61.10
6865;DHT22;3471;49.678;8.388;2023-07-09T15:57:53;37.70;60.60
6865;DHT22;3471;49.678;8.388;2023-07-09T16:00:27;37.70;59.70
6865;DHT22;3471;49.678;8.388;2023-07-09T16:02:54;37.60;61.00
6865;DHT22;3471;49.678;8.388;2023-07-09T16:05:29;37.70;59.60
6865;DHT22;3471;49.678;8.388;2023-07-09T16:07:56;37.60;61.20
6865;DHT22;3471;49.678;8.388;2023-07-09T16:10:24;37.50;59.50
6865;DHT22;3471;49.678;8.388;2023-07-09T16:12:51;37.40;60.50
6865;DHT22;3471;49.678;8.388;2023-07-09T16:15:19;37.30;59.80
6865;DHT22;3471;49.678;8.388;2023-07-09T16:17:46;37.20;60.60
6865;DHT22;3471;49.678;8.388;2023-07-09T16:20:14;37.10;60.90
6865;DHT22;3471;49.678;8.388;2023-07-09T16:22:41;37.00;59.70
6865;DHT22;3471;49.678;8.388;2023-07-09T16:25:20;36.90;59.40
6865;DHT22;3471;49.678;8.388;2023-07-09T16:27:46;36.70;59.30
6865;DHT22;3471;49.678;8.388;2023-07-09T16:30:20;36.70;59.90
6865;DHT22;3471;49.678;8.388;2023-07-09T16:32:46;36.60;60.40
6865;DHT22;3471;49.678;8.388;2023-07-09T16:35:19;36.60;60.10
6865;DHT22;3471;49.678;8.388;2023-07-09T16:37:47;36.50;59.90
6865;DHT22;3471;49.678;8.388;2023-07-09T16:40:15;36.50;60.80
6865;DHT22;3471;49.678;8.388;2023-07-09T16:42:41;36.40;60.60
6865;DHT22;3471;49.678;8.388;2023-07-09T16:45:07;36.20;62.40
6865;DHT22;3471;49.678;8.388;2023-07-09T16:47:34;36.20;65.00
6865;DHT22;3471;49.678;8.388;2023-07-09T16:49:59;36.00;68.80
6865;DHT22;3471;49.678;8.388;2023-07-09T16:52:25;35.80;70.90